Time;durP1;ratioP1;P1;durP2;ratioP2;P2;SDS_P1;SDS_P2;PMS_P1;PMS_P2;Temp;Humidity;BMP_temperature;BMP_pressure;BME280_temperature;BME280_humidity;BME280_pressure;Samples;Min_cycle;Max_cycle;Signal;HPM_P1;HPM_P2
2022/01/31 00:00:16;;;;;;;14.32;6.57;;;6.40;62.50;;;-142.21;100.00;112049.66;5097353;28;20303;-83
2022/01/31 00:02:46;;;;;;;8.80;5.53;;;6.50;62.60;;;-142.21;100.00;112049.66;5097018;28;20231;-83
2022/01/31 00:05:15;;;;;;;10.55;5.93;;;6.50;62.50;;;-142.21;100.00;112049.66;5097195;28;20550;-84
2022/01/31 00:07:43;;;;;;;12.32;6.68;;;6.60;62.80;;;-142.21;100.00;112049.66;5096687;28;20224;-84
2022/01/31 00:10:12;;;;;;;14.02;6.63;;;6.60;62.50;;;-142.21;100.00;112049.66;5097324;28;20232;-84
2022/01/31 00:12:50;;;;;;;11.88;5.82;;;6.60;62.30;;;-142.21;100.00;112049.66;5097271;28;20214;-85
2022/01/31 00:15:19;;;;;;;16.92;6.80;;;6.60;62.90;;;-142.21;100.00;112049.66;5098134;28;20208;-84
2022/01/31 00:17:46;;;;;;;12.32;6.72;;;6.70;63.10;;;-142.21;100.00;112049.66;5097338;28;20204;-86
2022/01/31 00:20:13;;;;;;;13.05;6.47;;;6.70;63.00;;;-142.21;100.00;112049.66;5097405;28;20303;-85
2022/01/31 00:22:41;;;;;;;11.18;6.40;;;6.70;63.00;;;-142.21;100.00;112049.66;5081943;28;20196;-85
2022/01/31 00:25:09;;;;;;;13.32;6.50;;;6.70;63.10;;;-142.21;100.00;112049.66;5097475;28;20204;-85
2022/01/31 00:27:36;;;;;;;12.18;6.30;;;6.80;63.00;;;-142.21;100.00;112049.66;5096636;28;20225;-85
2022/01/31 00:30:06;;;;;;;11.15;6.68;;;6.70;62.90;;;-142.21;100.00;112049.66;5096435;28;20311;-85
2022/01/31 00:32:35;;;;;;;11.33;7.00;;;6.50;63.40;;;-142.21;100.00;112049.66;5096880;28;20228;-85
2022/01/31 00:35:03;;;;;;;19.67;7.55;;;6.40;63.80;;;-142.21;100.00;112049.66;5096866;28;20462;-85
2022/01/31 00:37:31;;;;;;;12.93;6.93;;;6.40;63.60;;;-142.21;100.00;112049.66;5076820;28;20660;-86
2022/01/31 00:39:58;;;;;;;15.95;7.35;;;6.60;64.00;;;-142.21;100.00;112049.66;5076870;28;20333;-86
2022/01/31 00:42:27;;;;;;;17.55;7.05;;;6.40;64.10;;;-142.21;100.00;112049.66;5091485;28;20212;-86
2022/01/31 00:44:57;;;;;;;13.52;7.00;;;6.40;64.20;;;-142.21;100.00;112049.66;5097515;28;20208;-86
2022/01/31 00:47:27;;;;;;;16.40;6.72;;;6.40;64.30;;;-142.21;100.00;112049.66;5097538;28;20676;-86
2022/01/31 00:50:06;;;;;;;12.97;7.17;;;6.40;64.60;;;-142.21;100.00;112049.66;5097826;28;20661;-86
2022/01/31 00:52:45;;;;;;;18.55;6.90;;;6.40;65.50;;;-142.21;100.00;112049.66;5096780;28;21086;-86
2022/01/31 00:55:15;;;;;;;14.80;7.43;;;6.40;64.70;;;-142.21;100.00;112049.66;5098049;28;20212;-87
2022/01/31 00:57:43;;;;;;;13.45;6.70;;;6.40;65.10;;;-142.21;100.00;112049.66;5098118;28;20661;-86
2022/01/31 01:00:13;;;;;;;12.25;6.63;;;6.40;65.20;;;-142.21;100.00;112049.66;5096998;28;20208;-85
2022/01/31 01:02:41;;;;;;;15.05;6.78;;;6.30;65.40;;;-142.21;100.00;112049.66;5096124;28;20636;-85
2022/01/31 01:05:10;;;;;;;21.65;7.68;;;6.40;65.40;;;-142.21;100.00;112049.66;5096205;28;20292;-84
2022/01/31 01:07:38;;;;;;;14.55;7.53;;;6.30;65.60;;;-142.21;100.00;112049.66;5096256;28;20323;-85
2022/01/31 01:10:07;;;;;;;15.27;7.80;;;6.20;65.80;;;-142.21;100.00;112049.66;5096439;28;20240;-86
2022/01/31 01:12:35;;;;;;;16.88;8.07;;;6.20;66.00;;;-142.21;100.00;112049.66;5096332;28;20688;-86
2022/01/31 01:15:02;;;;;;;14.15;7.95;;;6.20;66.10;;;-142.21;100.00;112049.66;5097182;28;20363;-85
2022/01/31 01:17:29;;;;;;;14.43;7.75;;;6.10;66.30;;;-142.21;100.00;112049.66;5095772;28;20291;-84
2022/01/31 01:19:56;;;;;;;16.13;7.55;;;6.10;66.30;;;-142.21;100.00;112049.66;5095693;28;20672;-84
2022/01/31 01:22:26;;;;;;;15.10;7.47;;;6.10;66.50;;;-142.21;100.00;112049.66;5096471;28;20225;-86
2022/01/31 01:24:53;;;;;;;13.20;7.25;;;6.10;66.40;;;-142.21;100.00;112049.66;5097704;28;20649;-87
2022/01/31 01:27:21;;;;;;;16.83;7.93;;;6.10;66.50;;;-142.21;100.00;112049.66;5096411;28;20228;-87
2022/01/31 01:29:48;;;;;;;12.60;8.45;;;6.10;66.50;;;-142.21;100.00;112049.66;5098101;28;20201;-87
2022/01/31 01:32:17;;;;;;;15.98;7.50;;;6.20;66.70;;;-142.21;100.00;112049.66;5097473;28;20316;-85
2022/01/31 01:34:45;;;;;;;13.70;7.65;;;6.20;67.00;;;-142.21;100.00;112049.66;5096683;28;20269;-88
2022/01/31 01:37:12;;;;;;;14.23;7.75;;;6.20;67.00;;;-142.21;100.00;112049.66;5096343;28;20233;-88
2022/01/31 01:39:41;;;;;;;14.93;8.27;;;6.10;67.40;;;-142.21;100.00;112049.66;5096993;28;20290;-87
2022/01/31 01:42:09;;;;;;;18.47;8.40;;;6.10;67.50;;;-142.21;100.00;112049.66;5096074;28;20224;-87
2022/01/31 01:44:45;;;;;;;15.63;8.18;;;6.10;68.00;;;-142.21;100.00;112049.66;5096198;28;20454;-87
2022/01/31 01:47:15;;;;;;;15.77;8.60;;;6.00;69.00;;;-142.21;100.00;112049.66;5096899;28;20277;-88
2022/01/31 01:49:42;;;;;;;15.88;8.65;;;6.00;68.40;;;-142.21;100.00;112049.66;5095922;28;20239;-88
2022/01/31 01:52:10;;;;;;;15.23;8.43;;;6.10;68.30;;;-142.21;100.00;112049.66;5096226;28;20319;-87
2022/01/31 01:54:38;;;;;;;12.73;7.80;;;6.20;67.90;;;-142.21;100.00;112049.66;5096337;28;20231;-86
2022/01/31 01:57:07;;;;;;;16.33;7.90;;;6.20;68.00;;;-142.21;100.00;112049.66;5096752;28;20957;-87
2022/01/31 01:59:37;;;;;;;13.77;8.23;;;6.30;68.10;;;-142.21;100.00;112049.66;5095979;28;20274;-86
2022/01/31 02:02:05;;;;;;;18.48;8.45;;;6.30;68.20;;;-142.21;100.00;112049.66;5095569;28;20664;-85
2022/01/31 02:04:34;;;;;;;13.90;8.15;;;6.30;68.30;;;-142.21;100.00;112049.66;5095641;28;20259;-87
2022/01/31 02:07:02;;;;;;;15.38;7.95;;;6.30;68.20;;;-142.21;100.00;112049.66;5094915;28;20250;-85
2022/01/31 02:09:31;;;;;;;14.35;7.70;;;6.40;68.80;;;-142.21;100.00;112049.66;5094630;28;20289;-86
2022/01/31 02:11:59;;;;;;;12.40;7.78;;;6.40;67.30;;;-142.21;100.00;112049.66;5094914;28;20276;-84
2022/01/31 02:14:31;;;;;;;14.55;7.80;;;6.50;67.60;;;-142.21;100.00;112049.66;5095593;28;20243;-84
2022/01/31 02:16:58;;;;;;;12.77;7.93;;;6.50;67.60;;;-142.21;100.00;112049.66;5095396;28;20197;-84
2022/01/31 02:19:25;;;;;;;13.63;7.63;;;6.60;67.50;;;-142.21;100.00;112049.66;5095038;28;20229;-85
2022/01/31 02:21:56;;;;;;;17.05;7.47;;;6.60;67.60;;;-142.21;100.00;112049.66;5095025;28;20293;-86
2022/01/31 02:24:23;;;;;;;13.65;6.88;;;6.60;67.70;;;-142.21;100.00;112049.66;5095220;28;20382;-84
2022/01/31 02:26:50;;;;;;;13.00;6.77;;;6.60;67.60;;;-142.21;100.00;112049.66;5095637;28;20254;-87
2022/01/31 02:29:18;;;;;;;14.23;6.40;;;6.60;67.40;;;-142.21;100.00;112049.66;5095518;28;20584;-88
2022/01/31 02:31:47;;;;;;;14.90;6.28;;;6.60;67.30;;;-142.21;100.00;112049.66;5095564;28;20671;-86
2022/01/31 02:34:16;;;;;;;12.43;6.75;;;6.60;67.90;;;-142.21;100.00;112049.66;5096016;28;20720;-86
2022/01/31 02:36:44;;;;;;;13.05;6.60;;;6.60;67.50;;;-142.21;100.00;112049.66;5095240;28;20201;-86
2022/01/31 02:39:13;;;;;;;9.07;5.90;;;6.60;67.60;;;-142.21;100.00;112049.66;5097195;28;20285;-88
2022/01/31 02:41:43;;;;;;;9.38;5.50;;;6.60;67.70;;;-142.21;100.00;112049.66;5098188;28;20518;-87
2022/01/31 02:44:15;;;;;;;10.73;5.75;;;6.70;67.60;;;-142.21;100.00;112049.66;5096582;28;20251;-87
2022/01/31 02:46:50;;;;;;;14.65;5.93;;;6.70;67.70;;;-142.21;100.00;112049.66;5099176;28;20204;-87
2022/01/31 02:49:24;;;;;;;15.90;6.38;;;6.60;67.50;;;-142.21;100.00;112049.66;5095969;28;20280;-85
2022/01/31 02:52:02;;;;;;;12.40;5.20;;;6.70;67.60;;;-142.21;100.00;112049.66;5100581;28;20239;-88
2022/01/31 02:54:33;;;;;;;11.63;5.73;;;6.90;67.40;;;-142.21;100.00;112049.66;5099792;28;20474;-88
2022/01/31 02:57:00;;;;;;;13.55;5.53;;;6.80;67.70;;;-142.21;100.00;112049.66;5103569;28;20438;-88
2022/01/31 02:59:28;;;;;;;13.03;5.50;;;6.90;67.00;;;-142.21;100.00;112049.66;5103075;28;20212;-88
2022/01/31 03:01:55;;;;;;;11.37;5.50;;;6.90;67.00;;;-142.21;100.00;112049.66;5100765;28;20954;-88
2022/01/31 03:04:23;;;;;;;9.53;4.87;;;7.00;66.20;;;-142.21;100.00;112049.66;5101312;28;20476;-87
2022/01/31 03:06:50;;;;;;;9.05;4.78;;;7.00;66.30;;;-142.21;100.00;112049.66;5095377;28;20497;-88
2022/01/31 03:09:18;;;;;;;10.43;4.53;;;7.10;66.30;;;-142.21;100.00;112049.66;5096283;28;20231;-89
2022/01/31 03:11:48;;;;;;;10.80;5.33;;;7.10;65.80;;;-142.21;100.00;112049.66;5094973;28;20918;-88
2022/01/31 03:14:18;;;;;;;10.63;4.43;;;7.20;66.00;;;-142.21;100.00;112049.66;5095606;28;20561;-87
2022/01/31 03:16:47;;;;;;;9.63;4.80;;;7.20;66.00;;;-142.21;100.00;112049.66;5097826;28;20314;-88
2022/01/31 03:19:17;;;;;;;9.90;4.82;;;7.20;65.70;;;-142.21;100.00;112049.66;5095553;28;20844;-88
2022/01/31 03:21:45;;;;;;;12.47;4.70;;;7.20;65.70;;;-142.21;100.00;112049.66;5096185;28;20228;-86
2022/01/31 03:24:14;;;;;;;11.90;4.87;;;7.20;65.70;;;-142.21;100.00;112049.66;5093926;28;20507;-87
2022/01/31 03:26:42;;;;;;;8.23;4.13;;;7.30;65.60;;;-142.21;100.00;112049.66;5094520;28;20517;-86
2022/01/31 03:29:11;;;;;;;12.13;4.40;;;7.30;65.20;;;-142.21;100.00;112049.66;5094537;28;20455;-86
2022/01/31 03:31:38;;;;;;;11.70;4.33;;;7.40;65.10;;;-142.21;100.00;112049.66;5094245;28;20471;-86
2022/01/31 03:34:06;;;;;;;11.13;4.03;;;7.40;65.00;;;-142.21;100.00;112049.66;5094935;28;21033;-85
2022/01/31 03:36:33;;;;;;;7.38;4.22;;;7.50;65.10;;;-142.21;100.00;112049.66;5096305;28;20534;-86
2022/01/31 03:39:00;;;;;;;8.10;4.60;;;7.50;64.70;;;-142.21;100.00;112049.66;5095562;28;20241;-86
2022/01/31 03:41:28;;;;;;;8.20;4.10;;;7.60;64.40;;;-142.21;100.00;112049.66;5095954;28;20633;-87
2022/01/31 03:43:55;;;;;;;8.30;4.07;;;7.70;64.20;;;-142.21;100.00;112049.66;5097330;28;20535;-87
2022/01/31 03:46:24;;;;;;;10.37;3.80;;;7.70;64.00;;;-142.21;100.00;112049.66;5098745;28;20451;-87
2022/01/31 03:48:52;;;;;;;8.47;3.67;;;7.60;63.60;;;-142.21;100.00;112049.66;5095504;28;20483;-88
2022/01/31 03:51:19;;;;;;;13.63;4.05;;;7.70;63.50;;;-142.21;100.00;112049.66;5094903;28;20458;-86
2022/01/31 03:53:47;;;;;;;12.60;4.30;;;7.80;63.30;;;-142.21;100.00;112049.66;5093850;28;20224;-85
2022/01/31 03:56:14;;;;;;;8.52;3.55;;;7.80;63.20;;;-142.21;100.00;112049.66;5093953;28;20504;-86
2022/01/31 03:58:41;;;;;;;9.80;4.13;;;7.80;62.70;;;-142.21;100.00;112049.66;5093381;28;20244;-85
2022/01/31 04:01:09;;;;;;;11.35;4.25;;;7.80;62.80;;;-142.21;100.00;112049.66;5093496;28;20466;-85
2022/01/31 04:03:37;;;;;;;7.83;4.03;;;7.90;62.80;;;-142.21;100.00;112049.66;5094008;28;20225;-85
2022/01/31 04:06:05;;;;;;;8.73;4.60;;;7.80;62.60;;;-142.21;100.00;112049.66;5093488;28;21109;-85
2022/01/31 04:08:32;;;;;;;9.80;3.93;;;7.90;62.80;;;-142.21;99.84;112049.66;5093214;28;20509;-85
2022/01/31 04:11:00;;;;;;;7.77;3.80;;;7.90;62.40;;;-142.21;99.66;112049.66;5093630;28;20562;-85
2022/01/31 04:13:27;;;;;;;9.47;4.03;;;7.90;62.50;;;-142.21;100.00;112049.66;5093314;28;20466;-84
2022/01/31 04:15:54;;;;;;;7.33;3.63;;;8.00;62.50;;;-142.21;99.30;112049.66;5094261;28;20470;-86
2022/01/31 04:18:22;;;;;;;7.60;3.80;;;8.00;62.70;;;-142.21;99.38;112049.66;5093370;28;20527;-86
2022/01/31 04:20:51;;;;;;;7.20;3.50;;;8.10;62.10;;;-142.21;99.29;112049.66;5094309;28;20550;-85
2022/01/31 04:23:20;;;;;;;7.57;3.73;;;8.10;62.10;;;-142.21;98.75;112049.66;5093264;28;20478;-86
2022/01/31 04:25:53;;;;;;;7.17;3.57;;;8.10;61.80;;;-142.21;99.20;112049.66;5094862;28;20458;-84
2022/01/31 04:28:29;;;;;;;11.70;4.23;;;8.10;61.90;;;-142.21;99.81;112049.66;5096727;28;20490;-85
2022/01/31 04:30:59;;;;;;;8.10;3.77;;;8.10;62.20;;;-142.21;99.96;112049.66;5097742;28;20449;-86
2022/01/31 04:33:29;;;;;;;6.93;4.00;;;8.10;62.10;;;-142.21;100.00;112049.66;5097808;28;20478;-86
2022/01/31 04:35:57;;;;;;;8.27;4.03;;;8.10;62.50;;;-142.21;100.00;112049.66;5097425;28;20474;-86
2022/01/31 04:38:27;;;;;;;8.53;4.00;;;8.10;62.20;;;-142.21;100.00;112049.66;5097354;28;20474;-86
2022/01/31 04:40:54;;;;;;;10.20;3.90;;;8.10;62.30;;;-142.21;100.00;112049.66;5096734;28;20931;-85
2022/01/31 04:43:22;;;;;;;9.60;4.00;;;8.10;63.00;;;-142.21;100.00;112049.66;5096182;28;20492;-85
2022/01/31 04:45:50;;;;;;;8.73;3.90;;;8.10;62.30;;;-142.21;100.00;112049.66;5096350;28;20510;-85
2022/01/31 04:48:20;;;;;;;12.57;4.03;;;8.10;62.90;;;-142.21;100.00;112049.66;5096363;28;20490;-85
2022/01/31 04:50:48;;;;;;;9.10;3.77;;;8.10;62.50;;;-142.21;100.00;112049.66;5096683;28;20853;-85
2022/01/31 04:53:17;;;;;;;6.77;3.73;;;8.00;62.30;;;-142.21;99.61;112049.66;5096658;28;20470;-85
2022/01/31 04:55:45;;;;;;;7.47;3.67;;;8.10;62.10;;;-142.21;99.86;112049.66;5096208;28;20919;-83
2022/01/31 04:58:12;;;;;;;6.93;3.63;;;8.20;63.00;;;-142.21;99.95;112049.66;5096341;28;20549;-85
2022/01/31 05:00:40;;;;;;;9.87;3.70;;;8.20;62.30;;;-142.21;100.00;112049.66;5096803;28;20546;-85
2022/01/31 05:03:11;;;;;;;8.82;3.97;;;8.20;62.30;;;-142.21;99.58;112049.66;5096409;28;21020;-86
2022/01/31 05:05:38;;;;;;;8.60;3.57;;;8.30;62.10;;;-142.21;99.27;112049.66;5097174;28;20291;-86
2022/01/31 05:08:06;;;;;;;8.07;3.60;;;8.50;62.10;;;-142.21;99.27;112049.66;5096685;28;20927;-84
2022/01/31 05:10:37;;;;;;;8.63;4.03;;;8.40;61.60;;;-142.21;98.18;112049.66;5097714;28;20482;-88
2022/01/31 05:13:05;;;;;;;9.87;4.23;;;8.40;61.60;;;-142.21;98.93;112049.66;5097756;28;20509;-88
2022/01/31 05:15:32;;;;;;;8.87;3.93;;;8.40;61.70;;;-142.21;98.30;112049.66;5096965;28;20470;-88
2022/01/31 05:17:59;;;;;;;10.13;3.80;;;8.50;61.40;;;-142.21;98.05;112049.66;5096509;28;20486;-84
2022/01/31 05:20:26;;;;;;;8.87;3.43;;;8.50;61.30;;;-142.21;97.96;112049.66;5096912;28;20474;-86
2022/01/31 05:22:54;;;;;;;8.03;3.60;;;8.50;61.10;;;-142.21;97.99;112049.66;5095915;28;20470;-84
2022/01/31 05:25:21;;;;;;;10.17;3.73;;;8.60;61.10;;;-142.21;97.21;112049.66;5079316;28;20511;-85
2022/01/31 05:27:50;;;;;;;8.57;3.67;;;8.60;60.40;;;-142.21;97.94;112049.66;5096986;28;20512;-88
2022/01/31 05:30:18;;;;;;;12.33;4.10;;;8.60;61.00;;;-142.21;97.51;112049.66;5097145;28;20561;-85
2022/01/31 05:32:45;;;;;;;9.33;3.40;;;8.70;61.00;;;-142.21;97.36;112049.66;5097242;28;20470;-85
2022/01/31 05:35:13;;;;;;;8.33;3.53;;;8.70;61.20;;;-142.21;97.43;112049.66;5094869;28;20467;-88
2022/01/31 05:37:41;;;;;;;10.53;3.83;;;8.70;60.90;;;-142.21;97.37;112049.66;5095832;28;20454;-85
2022/01/31 05:40:10;;;;;;;7.93;3.70;;;8.80;61.10;;;-142.21;98.76;112049.66;5095404;28;20496;-83
2022/01/31 05:42:39;;;;;;;10.33;4.17;;;8.70;61.60;;;-142.21;100.00;112049.66;5096923;28;20889;-86
2022/01/31 05:45:09;;;;;;;5.20;3.33;;;8.70;62.20;;;-142.21;100.00;112049.66;5096677;28;20466;-88
2022/01/31 05:47:37;;;;;;;8.57;4.00;;;8.80;62.60;;;-142.21;100.00;112049.66;5096267;28;20492;-86
2022/01/31 05:50:06;;;;;;;8.40;3.90;;;8.80;62.90;;;-142.21;100.00;112049.66;5096479;28;20822;-88
2022/01/31 05:52:34;;;;;;;7.97;3.67;;;8.80;63.30;;;-142.21;100.00;112049.66;5096664;28;20539;-89
2022/01/31 05:55:03;;;;;;;7.77;3.50;;;8.80;63.10;;;-142.21;100.00;112049.66;5095793;28;20553;-87
2022/01/31 05:57:32;;;;;;;9.33;3.73;;;8.80;63.80;;;-142.21;100.00;112049.66;5095942;28;20973;-85
2022/01/31 06:00:00;;;;;;;10.23;4.47;;;8.80;64.30;;;-142.21;100.00;112049.66;5095173;28;20476;-82
2022/01/31 06:02:29;;;;;;;9.33;4.13;;;8.80;65.30;;;-142.21;100.00;112049.66;5095306;28;20545;-86
2022/01/31 06:04:56;;;;;;;9.67;4.33;;;8.70;65.70;;;-142.21;100.00;112049.66;5096297;28;20474;-83
2022/01/31 06:07:24;;;;;;;8.17;4.30;;;8.70;66.50;;;-142.21;100.00;112049.66;5096124;28;20475;-87
2022/01/31 06:09:51;;;;;;;11.93;4.53;;;8.70;67.00;;;-142.21;100.00;112049.66;5094432;28;20585;-86
2022/01/31 06:12:19;;;;;;;10.27;4.60;;;8.70;67.50;;;-142.21;100.00;112049.66;5095100;28;20531;-85
2022/01/31 06:14:54;;;;;;;10.77;4.80;;;8.60;68.20;;;-142.21;100.00;112049.66;5095235;28;20947;-82
2022/01/31 06:17:29;;;;;;;9.23;4.27;;;8.60;68.60;;;-142.21;100.00;112049.66;5094582;28;20462;-82
2022/01/31 06:19:57;;;;;;;10.00;4.37;;;8.50;69.50;;;-142.21;100.00;112049.66;5094902;28;20485;-84
2022/01/31 06:22:31;;;;;;;9.10;4.53;;;8.50;69.50;;;-142.21;100.00;112049.66;5094836;28;20466;-87
2022/01/31 06:24:58;;;;;;;9.17;4.33;;;8.50;70.60;;;-142.21;100.00;112049.66;5094985;28;20497;-86
2022/01/31 06:27:25;;;;;;;6.07;3.77;;;8.40;70.20;;;-142.21;100.00;112049.66;5096091;28;20490;-86
2022/01/31 06:29:52;;;;;;;8.77;3.87;;;8.40;70.30;;;-142.21;100.00;112049.66;5094824;28;20505;-82
2022/01/31 06:32:22;;;;;;;12.67;4.47;;;8.40;70.70;;;-142.21;100.00;112049.66;5095694;28;20470;-82
2022/01/31 06:34:53;;;;;;;10.10;4.63;;;8.30;71.10;;;-142.21;100.00;112049.66;5094588;28;20474;-82
2022/01/31 06:37:20;;;;;;;11.00;4.50;;;8.30;71.20;;;-142.21;100.00;112049.66;5094424;28;20537;-85
2022/01/31 06:39:47;;;;;;;9.73;4.73;;;8.30;71.50;;;-142.21;100.00;112049.66;5094570;28;20523;-83
2022/01/31 06:42:15;;;;;;;8.20;5.10;;;8.20;72.40;;;-142.21;100.00;112049.66;5094382;28;20450;-84
2022/01/31 06:44:42;;;;;;;7.27;4.20;;;8.20;72.50;;;-142.21;100.00;112049.66;5074920;28;20983;-86
2022/01/31 06:47:10;;;;;;;11.33;5.03;;;8.10;72.60;;;-142.21;100.00;112049.66;5074157;28;20804;-87
2022/01/31 06:49:37;;;;;;;13.17;4.87;;;8.10;72.80;;;-142.21;100.00;112049.66;5072513;28;21003;-82
2022/01/31 06:52:07;;;;;;;9.93;4.67;;;8.20;72.60;;;-142.21;100.00;112049.66;5073074;28;20534;-85
2022/01/31 06:54:35;;;;;;;10.97;5.13;;;8.20;73.30;;;-142.21;100.00;112049.66;5073815;28;20481;-87
2022/01/31 06:57:06;;;;;;;7.30;4.37;;;8.10;73.50;;;-142.21;100.00;112049.66;5073580;28;20652;-83
2022/01/31 06:59:34;;;;;;;8.33;4.60;;;8.00;74.40;;;-142.21;100.00;112049.66;5093434;28;20448;-84
2022/01/31 07:02:01;;;;;;;8.07;4.23;;;8.00;74.20;;;-142.21;100.00;112049.66;5094396;28;20466;-85
2022/01/31 07:04:29;;;;;;;9.83;4.43;;;8.00;74.20;;;-142.21;100.00;112049.66;5093692;28;20533;-78
2022/01/31 07:06:57;;;;;;;14.93;5.30;;;8.00;74.50;;;-142.21;100.00;112049.66;5093360;28;20455;-82
2022/01/31 07:09:26;;;;;;;11.57;5.27;;;8.00;74.70;;;-142.21;100.00;112049.66;5093685;28;20485;-85
2022/01/31 07:11:57;;;;;;;7.93;4.63;;;8.00;75.00;;;-142.21;100.00;112049.66;5093273;28;20471;-81
2022/01/31 07:14:30;;;;;;;10.03;5.13;;;8.00;75.40;;;-142.21;100.00;112049.66;5092747;28;20467;-86
2022/01/31 07:17:00;;;;;;;10.13;5.30;;;8.00;75.20;;;-142.21;100.00;112049.66;5093240;28;20847;-86
2022/01/31 07:19:30;;;;;;;10.20;4.57;;;8.00;76.30;;;-142.21;100.00;112049.66;5094115;28;20874;-84
2022/01/31 07:21:58;;;;;;;10.03;4.80;;;8.00;75.20;;;-142.21;100.00;112049.66;5094052;28;20500;-86
2022/01/31 07:24:41;;;;;;;12.30;5.50;;;8.00;75.50;;;-142.21;100.00;112049.66;5094020;28;20829;-86
2022/01/31 07:27:09;;;;;;;12.20;5.63;;;8.00;75.70;;;-142.21;100.00;112049.66;5074413;28;20450;-84
2022/01/31 07:29:37;;;;;;;9.37;5.17;;;8.00;76.00;;;-142.21;100.00;112049.66;5084504;28;20478;-83
2022/01/31 07:32:05;;;;;;;10.13;4.80;;;8.00;75.70;;;-142.21;100.00;112049.66;5094356;28;20470;-84
2022/01/31 07:34:33;;;;;;;10.03;5.27;;;8.10;76.00;;;-142.21;100.00;112049.66;5101899;28;20447;-85
2022/01/31 07:37:00;;;;;;;10.63;5.23;;;8.10;76.20;;;-142.21;100.00;112049.66;5118775;28;20457;-84
2022/01/31 07:39:29;;;;;;;9.57;4.60;;;8.10;76.10;;;-142.21;100.00;112049.66;5114551;28;20870;-83
2022/01/31 07:41:57;;;;;;;7.63;4.70;;;8.00;76.60;;;-142.21;100.00;112049.66;5109786;28;20446;-83
2022/01/31 07:44:24;;;;;;;10.27;4.57;;;8.10;75.80;;;-142.21;100.00;112049.66;5093500;28;20540;-85
2022/01/31 07:46:53;;;;;;;9.33;4.67;;;8.00;76.80;;;-142.21;100.00;112049.66;5093875;28;20478;-88
2022/01/31 07:49:21;;;;;;;9.67;4.27;;;8.00;77.00;;;-142.21;100.00;112049.66;5093611;28;20486;-85
2022/01/31 07:51:49;;;;;;;9.03;4.37;;;8.10;76.90;;;-142.21;100.00;112049.66;5093238;28;20453;-85
2022/01/31 07:54:16;;;;;;;6.03;4.00;;;8.10;77.20;;;-142.21;100.00;112049.66;5092542;28;20541;-80
2022/01/31 07:56:44;;;;;;;6.50;4.20;;;8.00;77.30;;;-142.21;100.00;112049.66;5090979;28;20883;-79
2022/01/31 07:59:32;;;;;;;7.57;3.50;;;8.00;77.70;;;-142.21;100.00;112049.66;5096864;28;20549;-76
2022/01/31 08:02:03;;;;;;;6.37;3.60;;;8.00;78.10;;;-142.21;100.00;112049.66;5094225;28;20457;-80
2022/01/31 08:04:30;;;;;;;4.87;2.87;;;8.10;78.00;;;-142.21;100.00;112049.66;5095206;28;21041;-78
2022/01/31 08:06:57;;;;;;;6.63;3.07;;;8.00;78.10;;;-142.21;100.00;112049.66;5095401;28;20495;-79
2022/01/31 08:09:25;;;;;;;6.73;2.97;;;8.10;77.50;;;-142.21;100.00;112049.66;5095977;28;20565;-76
2022/01/31 08:11:54;;;;;;;5.07;2.60;;;8.10;78.30;;;-142.21;100.00;112049.66;5095348;28;20815;-79
2022/01/31 08:14:21;;;;;;;6.03;3.10;;;8.10;78.20;;;-142.21;100.00;112049.66;5095045;28;21395;-80
2022/01/31 08:16:49;;;;;;;5.63;2.70;;;8.10;77.80;;;-142.21;100.00;112049.66;5095588;28;20443;-77
2022/01/31 08:19:16;;;;;;;3.63;2.50;;;8.20;78.00;;;-142.21;100.00;112049.66;5094436;28;20528;-80
2022/01/31 08:21:43;;;;;;;4.20;2.47;;;8.20;77.90;;;-142.21;100.00;112049.66;5095781;28;20477;-78
2022/01/31 08:24:11;;;;;;;4.10;2.50;;;8.30;77.90;;;-142.21;100.00;112049.66;5094756;28;20792;-79
2022/01/31 08:26:39;;;;;;;4.18;2.60;;;8.40;77.30;;;-142.21;100.00;112049.66;5095333;28;20588;-77
2022/01/31 08:29:19;;;;;;;4.03;2.73;;;8.40;77.20;;;-142.21;100.00;112049.66;5087588;28;20297;-78
2022/01/31 08:31:48;;;;;;;4.37;2.70;;;8.40;77.30;;;-142.21;100.00;112049.66;5095998;28;20840;-77
2022/01/31 08:35:48;;;;;;;3.97;2.50;;;8.40;77.40;;;-142.21;100.00;112049.66;5093563;28;21039;-80
2022/01/31 08:37:13;;;;;;;4.63;2.63;;;8.50;77.30;;;-142.21;100.00;112049.66;5094414;28;20511;-80
2022/01/31 08:39:41;;;;;;;7.60;3.10;;;8.50;76.90;;;-142.21;100.00;112049.66;5094682;28;20449;-78
2022/01/31 08:42:09;;;;;;;3.60;2.53;;;8.50;77.10;;;-142.21;100.00;112049.66;5095371;28;20438;-79
2022/01/31 08:44:39;;;;;;;5.13;2.43;;;8.50;77.00;;;-142.21;100.00;112049.66;5095015;28;20512;-79
2022/01/31 08:47:06;;;;;;;3.90;2.47;;;8.60;76.90;;;-142.21;100.00;112049.66;5095263;28;20447;-79
2022/01/31 08:49:36;;;;;;;3.83;2.30;;;8.60;77.00;;;-142.21;100.00;112049.66;5094482;28;20486;-79
2022/01/31 08:52:05;;;;;;;3.67;2.33;;;8.60;77.00;;;-142.21;100.00;112049.66;5095259;28;20454;-80
2022/01/31 08:54:33;;;;;;;2.73;2.13;;;8.80;76.70;;;-142.21;100.00;112049.66;5095607;28;20439;-76
2022/01/31 08:57:02;;;;;;;3.07;2.30;;;8.90;76.70;;;-142.21;100.00;112049.66;5096918;28;20837;-78
2022/01/31 08:59:29;;;;;;;3.07;2.40;;;8.90;76.10;;;-142.21;100.00;112049.66;5094675;28;20492;-80
2022/01/31 09:02:06;;;;;;;3.43;2.20;;;9.00;75.70;;;-142.21;100.00;112049.66;5094930;28;20450;-80
2022/01/31 09:04:41;;;;;;;3.53;2.30;;;9.00;75.30;;;-142.21;100.00;112049.66;5094489;28;20891;-78
2022/01/31 09:07:09;;;;;;;2.57;2.30;;;9.00;75.70;;;-142.21;100.00;112049.66;5102387;28;20528;-81
2022/01/31 09:09:36;;;;;;;2.80;2.20;;;9.00;75.50;;;-142.21;100.00;112049.66;5084470;28;20519;-78
2022/01/31 09:12:07;;;;;;;3.40;2.30;;;9.00;75.50;;;-142.21;100.00;112049.66;5073872;28;20432;-79
2022/01/31 09:14:35;;;;;;;3.20;2.10;;;9.00;75.50;;;-142.21;100.00;112049.66;5074387;28;20438;-79
2022/01/31 09:17:05;;;;;;;4.47;2.33;;;9.10;75.00;;;-142.21;100.00;112049.66;5090288;28;20508;-77
2022/01/31 09:19:32;;;;;;;5.30;2.50;;;9.10;75.10;;;-142.21;100.00;112049.66;5074683;28;20810;-75
2022/01/31 09:22:01;;;;;;;2.40;2.13;;;9.10;74.80;;;-142.21;100.00;112049.66;5091406;28;20946;-80
2022/01/31 09:24:29;;;;;;;4.57;2.40;;;9.10;74.70;;;-142.21;100.00;112049.66;5095483;28;20442;-78
2022/01/31 09:26:57;;;;;;;3.17;2.23;;;9.10;74.70;;;-142.21;100.00;112049.66;5094648;28;20447;-79
2022/01/31 09:29:25;;;;;;;4.93;2.37;;;9.10;75.00;;;-142.21;100.00;112049.66;5089369;28;20486;-80
2022/01/31 09:31:52;;;;;;;3.70;2.27;;;9.10;74.70;;;-142.21;100.00;112049.66;5087212;28;20494;-79
2022/01/31 09:34:21;;;;;;;3.30;2.40;;;9.10;74.70;;;-142.21;100.00;112049.66;5082446;28;20447;-78
2022/01/31 09:36:49;;;;;;;5.03;2.60;;;9.10;74.70;;;-142.21;100.00;112049.66;5094126;28;20504;-77
2022/01/31 09:39:16;;;;;;;5.17;2.90;;;9.20;74.50;;;-142.21;100.00;112049.66;5094750;28;20486;-79
2022/01/31 09:41:46;;;;;;;4.57;2.63;;;9.20;74.20;;;-142.21;100.00;112049.66;5094025;28;20439;-79
2022/01/31 09:44:23;;;;;;;3.30;2.20;;;9.30;74.20;;;-142.21;100.00;112049.66;5074356;28;20530;-80
2022/01/31 09:47:05;;;;;;;2.53;2.17;;;9.30;74.10;;;-142.21;100.00;112049.66;5037764;28;20454;-78
2022/01/31 09:49:34;;;;;;;7.10;2.83;;;9.30;73.90;;;-142.21;100.00;112049.66;5073887;28;20463;-78
2022/01/31 09:52:02;;;;;;;3.90;2.77;;;9.30;73.90;;;-142.21;100.00;112049.66;5089597;28;20849;-79
2022/01/31 09:54:29;;;;;;;2.83;2.30;;;9.30;73.70;;;-142.21;100.00;112049.66;5093467;28;20481;-80
2022/01/31 09:56:58;;;;;;;5.40;2.77;;;9.30;73.70;;;-142.21;100.00;112049.66;5093367;28;20434;-80
2022/01/31 09:59:26;;;;;;;3.80;2.70;;;9.30;74.00;;;-142.21;100.00;112049.66;5094179;28;20507;-79
2022/01/31 10:01:57;;;;;;;3.07;2.50;;;9.40;73.90;;;-142.21;100.00;112049.66;5093404;28;21018;-79
2022/01/31 10:04:28;;;;;;;5.73;2.60;;;9.40;73.60;;;-142.21;100.00;112049.66;5094157;28;20472;-79